Terminal Aerodrome Forecast
Issued by NWS

Home | Current Version | Previous Version | Text Only | Print | Product List | Glossary On
Versions: 1 2 3 4 5 6 7 8 9 10 11 12
706
FTUS46 KLOX 222338
TAFSBP
TAF
KSBP 222338Z 2300/2324 31010KT P6SM SKC
     FM230400 VRB03KT P6SM SCT250
     FM231800 31004KT 6SM HZ SCT250
     FM232200 23016KT P6SM SKC=

USA.gov is the U.S. government's official web portal to all federal, state and local government web resources and services.